Ocean Navigator — WSC2552 — position and weather

sailwx.info

Track history (hours):
 
Tides and Currents Weather Stations Pressure Air Temp Water Temp Dewpoint Dewpoint Depression Visibility Wind Speed Wind Dir Waves Ship Positions

Ocean Navigator

Owner: OCEAN NAVIGATOR INC, SEATTLE, WA. More information available from US FCC via Universal Licensing System and Coast Guard Vessel Documentation Center.

Last reported at 2016-Dec-08 13:34 UTC. Time now 2016-Dec-08 14:20 UTC.
Position N 49°09' W 123°02'.

Type: Towing. MMSI: 366358000.

Date/timePositionNaut miles runAvg speedWind from/ knotsBaromVisibWave heightAir tempDewpointWater temp
2016-Dec-08 13:34N 49°09' W 123°02'0 0.0
2016-Dec-08 12:34N 49°09' W 123°02'0 0.0
2016-Dec-08 11:34N 49°09' W 123°02'0 0.0
2016-Dec-08 10:33N 49°09' W 123°02'0 0.2
2016-Dec-08 09:34N 49°09' W 123°02'7 6.5
2016-Dec-08 08:33N 49°07' W 123°12'6 5.6
2016-Dec-08 07:33N 49°04' W 123°19'9 9.3
2016-Dec-08 06:33N 48°58' W 123°09'1110.2
2016-Dec-08 05:29N 48°50' W 122°57'910.1
2016-Dec-08 04:34N 48°45' W 122°45'9 8.6
2016-Dec-08 03:33N 48°36' W 122°45'9 9.3
2016-Dec-08 02:33N 48°27' W 122°44'21 8.7
2016-Dec-08 00:12N 48°06' W 122°39'911.9
2016-Dec-07 23:26N 47°58' W 122°34'910.2
2016-Dec-07 22:34N 47°50' W 122°27'9 9.4
2016-Dec-07 21:34N 47°41' W 122°27'7 7.4
2016-Dec-07 20:34N 47°35' W 122°22'1 0.0
2016-Dec-05 20:33N 47°34' W 122°21'2 2.0
2016-Dec-05 19:33N 47°36' W 122°23'  
2016-Dec-03 02:34N 47°35' W 122°22'1 1.0
2016-Dec-03 01:34N 47°36' W 122°24'7 7.2
2016-Dec-03 00:33N 47°29' W 122°24'7 7.2
2016-Dec-02 23:33N 47°22' W 122°23'3 0.2
2016-Dec-02 06:31N 47°25' W 122°23'9 9.7
2016-Dec-02 05:33N 47°34' W 122°25'3 2.6
2016-Dec-02 04:33N 47°35' W 122°22'8 8.3
2016-Dec-02 03:33N 47°35' W 122°34'6 5.7
2016-Dec-02 02:33N 47°32' W 122°41'3 3.4
2016-Dec-02 01:33N 47°34' W 122°36'7 6.7
2016-Dec-02 00:33N 47°35' W 122°27'3 2.9
2016-Dec-01 23:33N 47°35' W 122°22'3 2.9
2016-Dec-01 22:33N 47°38' W 122°26'8 8.0
2016-Dec-01 21:33N 47°45' W 122°27'9 8.7
2016-Dec-01 20:33N 47°54' W 122°30'36 7.0
2016-Dec-01 15:30N 48°28' W 122°45'7 7.2
2016-Dec-01 14:32N 48°35' W 122°45'6 6.0
2016-Dec-01 13:33N 48°41' W 122°44'22 7.2
2016-Dec-01 10:33N 48°55' W 123°09'8 8.0
2016-Dec-01 09:32N 49°00' W 123°18'8 8.2
2016-Dec-01 08:33N 49°06' W 123°26'9 8.5
2016-Dec-01 07:30N 49°13' W 123°35'8 9.0
2016-Dec-01 06:33N 49°20' W 123°41'2 0.2
2016-Nov-30 19:33N 49°19' W 123°38'9 4.3
2016-Nov-30 17:29N 49°12' W 123°30'6 6.2
2016-Nov-30 16:30N 49°07' W 123°24'8 7.6
2016-Nov-30 15:29N 49°01' W 123°16'7 7.3
2016-Nov-30 14:33N 48°57' W 123°08'11 8.0
2016-Nov-30 13:10N 48°50' W 122°55'7 9.1
2016-Nov-30 12:22N 48°46' W 122°46'911.0
2016-Nov-30 11:33N 48°37' W 122°45'1312.4
2016-Nov-30 10:33N 48°24' W 122°44'23 7.7
2016-Nov-30 07:33N 48°02' W 122°37'10 9.7
2016-Nov-30 06:33N 47°54' W 122°29'10 9.8
2016-Nov-30 05:34N 47°45' W 122°26'9 8.7
2016-Nov-30 04:34N 47°36' W 122°23'3 2.6
2016-Nov-30 03:34N 47°34' W 122°21'0 0.0
2016-Nov-30 02:34N 47°34' W 122°21'2 1.6
2016-Nov-30 01:34N 47°35' W 122°22'3 3.3
2016-Nov-30 00:34N 47°35' W 122°27'9 9.0
2016-Nov-29 23:34N 47°33' W 122°40'1 0.8
2016-Nov-29 22:33N 47°32' W 122°41'5 4.5
2016-Nov-29 21:34N 47°35' W 122°35'8 7.5
2016-Nov-29 20:33N 47°36' W 122°24'3 3.0
2016-Nov-29 19:34N 47°34' W 122°21'  
Track history (hours):
 
Tides and Currents Weather Stations Pressure Air Temp Water Temp Dewpoint Dewpoint Depression Visibility Wind Speed Wind Dir Waves Ship Positions

Ocean Navigator

Owner: OCEAN NAVIGATOR INC, SEATTLE, WA. More information available from US FCC via Universal Licensing System and Coast Guard Vessel Documentation Center.

Last reported at 2016-Dec-08 13:34 UTC. Time now 2016-Dec-08 14:20 UTC.
Position N 49°09' W 123°02'.

Type: Towing. MMSI: 366358000.

Date/timePositionNaut miles runAvg speedWind from/ knotsBaromVisibWave heightAir tempDewpointWater temp
2016-Dec-08 13:34N 49°09' W 123°02'0 0.0
2016-Dec-08 12:34N 49°09' W 123°02'0 0.0
2016-Dec-08 11:34N 49°09' W 123°02'0 0.0
2016-Dec-08 10:33N 49°09' W 123°02'0 0.2
2016-Dec-08 09:34N 49°09' W 123°02'7 6.5
2016-Dec-08 08:33N 49°07' W 123°12'6 5.6
2016-Dec-08 07:33N 49°04' W 123°19'9 9.3
2016-Dec-08 06:33N 48°58' W 123°09'1110.2
2016-Dec-08 05:29N 48°50' W 122°57'910.1
2016-Dec-08 04:34N 48°45' W 122°45'9 8.6
2016-Dec-08 03:33N 48°36' W 122°45'9 9.3
2016-Dec-08 02:33N 48°27' W 122°44'21 8.7
2016-Dec-08 00:12N 48°06' W 122°39'911.9
2016-Dec-07 23:26N 47°58' W 122°34'910.2
2016-Dec-07 22:34N 47°50' W 122°27'9 9.4
2016-Dec-07 21:34N 47°41' W 122°27'7 7.4
2016-Dec-07 20:34N 47°35' W 122°22'1 0.0
2016-Dec-05 20:33N 47°34' W 122°21'2 2.0
2016-Dec-05 19:33N 47°36' W 122°23'  
2016-Dec-03 02:34N 47°35' W 122°22'1 1.0
2016-Dec-03 01:34N 47°36' W 122°24'7 7.2
2016-Dec-03 00:33N 47°29' W 122°24'7 7.2
2016-Dec-02 23:33N 47°22' W 122°23'3 0.2
2016-Dec-02 06:31N 47°25' W 122°23'9 9.7
2016-Dec-02 05:33N 47°34' W 122°25'3 2.6
2016-Dec-02 04:33N 47°35' W 122°22'8 8.3
2016-Dec-02 03:33N 47°35' W 122°34'6 5.7
2016-Dec-02 02:33N 47°32' W 122°41'3 3.4
2016-Dec-02 01:33N 47°34' W 122°36'7 6.7
2016-Dec-02 00:33N 47°35' W 122°27'3 2.9
2016-Dec-01 23:33N 47°35' W 122°22'3 2.9
2016-Dec-01 22:33N 47°38' W 122°26'8 8.0
2016-Dec-01 21:33N 47°45' W 122°27'9 8.7
2016-Dec-01 20:33N 47°54' W 122°30'36 7.0
2016-Dec-01 15:30N 48°28' W 122°45'7 7.2
2016-Dec-01 14:32N 48°35' W 122°45'6 6.0
2016-Dec-01 13:33N 48°41' W 122°44'22 7.2
2016-Dec-01 10:33N 48°55' W 123°09'8 8.0
2016-Dec-01 09:32N 49°00' W 123°18'8 8.2
2016-Dec-01 08:33N 49°06' W 123°26'9 8.5
2016-Dec-01 07:30N 49°13' W 123°35'8 9.0
2016-Dec-01 06:33N 49°20' W 123°41'2 0.2
2016-Nov-30 19:33N 49°19' W 123°38'9 4.3
2016-Nov-30 17:29N 49°12' W 123°30'6 6.2
2016-Nov-30 16:30N 49°07' W 123°24'8 7.6
2016-Nov-30 15:29N 49°01' W 123°16'7 7.3
2016-Nov-30 14:33N 48°57' W 123°08'11 8.0
2016-Nov-30 13:10N 48°50' W 122°55'7 9.1
2016-Nov-30 12:22N 48°46' W 122°46'911.0
2016-Nov-30 11:33N 48°37' W 122°45'1312.4
2016-Nov-30 10:33N 48°24' W 122°44'23 7.7
2016-Nov-30 07:33N 48°02' W 122°37'10 9.7
2016-Nov-30 06:33N 47°54' W 122°29'10 9.8
2016-Nov-30 05:34N 47°45' W 122°26'9 8.7
2016-Nov-30 04:34N 47°36' W 122°23'3 2.6
2016-Nov-30 03:34N 47°34' W 122°21'0 0.0
2016-Nov-30 02:34N 47°34' W 122°21'2 1.6
2016-Nov-30 01:34N 47°35' W 122°22'3 3.3
2016-Nov-30 00:34N 47°35' W 122°27'9 9.0
2016-Nov-29 23:34N 47°33' W 122°40'1 0.8
2016-Nov-29 22:33N 47°32' W 122°41'5 4.5
2016-Nov-29 21:34N 47°35' W 122°35'8 7.5
2016-Nov-29 20:33N 47°36' W 122°24'3 3.0
2016-Nov-29 19:34N 47°34' W 122°21'  

Dump ship's entire track history